Time;durP1;ratioP1;P1;durP2;ratioP2;P2;SDS_P1;SDS_P2;PMS_P1;PMS_P2;Temp;Humidity;BMP_temperature;BMP_pressure;BME280_temperature;BME280_humidity;BME280_pressure;Samples;Min_cycle;Max_cycle;Signal;HPM_P1;HPM_P2
2023/04/14 00:01:04;;;;;;;2.50;2.40;;;6.20;99.90;;;;;;5077364;28;20287;-67
2023/04/14 00:03:31;;;;;;;2.30;2.20;;;6.20;99.90;;;;;;5076136;28;20294;-67
2023/04/14 00:05:58;;;;;;;2.28;2.17;;;6.20;99.90;;;;;;5075724;28;20372;-68
2023/04/14 00:08:25;;;;;;;2.10;2.00;;;6.20;99.90;;;;;;5076348;28;20683;-68
2023/04/14 00:10:53;;;;;;;2.22;2.13;;;6.20;99.90;;;;;;5076166;28;20201;-68
2023/04/14 00:13:20;;;;;;;1.70;1.70;;;6.20;99.90;;;;;;5075331;28;20259;-67
2023/04/14 00:15:47;;;;;;;2.10;1.95;;;6.20;99.90;;;;;;5074933;28;20276;-68
2023/04/14 00:18:14;;;;;;;2.05;1.95;;;6.20;99.90;;;;;;5074784;28;20213;-68
2023/04/14 00:20:41;;;;;;;2.25;2.15;;;6.20;99.90;;;;;;5078059;28;20198;-68
2023/04/14 00:23:07;;;;;;;2.40;2.30;;;6.20;99.90;;;;;;5078135;28;20241;-67
2023/04/14 00:25:34;;;;;;;2.30;2.20;;;6.20;99.90;;;;;;5075466;28;20288;-68
2023/04/14 00:28:03;;;;;;;2.10;2.08;;;6.20;99.90;;;;;;5076401;28;20316;-68
2023/04/14 00:30:30;;;;;;;2.13;2.05;;;6.20;99.90;;;;;;5076967;28;20284;-67
2023/04/14 00:32:57;;;;;;;2.38;2.28;;;6.30;99.90;;;;;;5078896;28;20189;-68
2023/04/14 00:35:24;;;;;;;2.17;2.08;;;6.30;99.90;;;;;;5077973;28;20299;-68
2023/04/14 00:37:51;;;;;;;2.08;1.98;;;6.30;99.90;;;;;;5078653;28;20227;-68
2023/04/14 00:40:18;;;;;;;2.17;2.08;;;6.30;99.90;;;;;;5079934;28;20224;-68
2023/04/14 00:42:46;;;;;;;2.22;2.13;;;6.30;99.90;;;;;;5075956;28;21162;-68
2023/04/14 00:45:15;;;;;;;2.40;2.30;;;6.30;99.90;;;;;;5074651;28;20294;-68
2023/04/14 00:47:45;;;;;;;2.00;2.00;;;6.30;99.90;;;;;;5070506;28;20202;-67
2023/04/14 00:50:13;;;;;;;2.15;2.10;;;6.30;99.90;;;;;;5074040;28;20711;-68
2023/04/14 00:52:42;;;;;;;2.65;2.55;;;6.30;99.90;;;;;;5075514;28;20297;-68
2023/04/14 00:55:10;;;;;;;1.75;1.75;;;6.20;99.90;;;;;;5078631;28;20239;-69
2023/04/14 00:57:38;;;;;;;1.85;1.80;;;6.30;99.90;;;;;;5075720;28;20201;-68
2023/04/14 01:00:07;;;;;;;2.20;2.10;;;6.30;99.90;;;;;;5079504;28;20198;-68
2023/04/14 01:02:35;;;;;;;2.30;2.20;;;6.30;99.90;;;;;;5077973;28;20213;-67
2023/04/14 01:05:02;;;;;;;1.90;1.80;;;6.20;99.90;;;;;;5079698;28;20288;-68
2023/04/14 01:07:30;;;;;;;2.38;2.28;;;6.20;99.90;;;;;;5078654;28;20322;-69
2023/04/14 01:09:58;;;;;;;2.05;1.95;;;6.20;99.90;;;;;;5075210;28;22426;-68
2023/04/14 01:12:36;;;;;;;2.17;2.08;;;6.20;99.90;;;;;;5078634;28;20228;-68
2023/04/14 01:15:11;;;;;;;2.40;2.30;;;6.20;99.90;;;;;;5075056;28;20296;-68
2023/04/14 01:17:48;;;;;;;1.92;1.85;;;6.20;99.90;;;;;;5074469;28;20216;-67
2023/04/14 01:20:23;;;;;;;2.30;2.20;;;6.20;99.90;;;;;;5076891;28;20201;-68
2023/04/14 01:23:00;;;;;;;2.20;2.10;;;6.20;99.90;;;;;;5075885;28;20224;-68
2023/04/14 01:26:13;;;;;;;2.40;2.30;;;6.20;99.90;;;;;;5081542;28;20690;-68
2023/04/14 01:28:55;;;;;;;2.20;2.10;;;6.30;99.90;;;;;;5044198;28;20255;-67
2023/04/14 01:31:26;;;;;;;1.70;1.70;;;6.30;99.90;;;;;;5077469;28;20205;-68
2023/04/14 01:33:59;;;;;;;2.00;1.90;;;6.30;99.90;;;;;;5080651;28;20283;-68
2023/04/14 01:36:33;;;;;;;2.25;2.15;;;6.30;99.90;;;;;;5079866;28;20630;-69
2023/04/14 01:39:05;;;;;;;2.03;2.03;;;6.30;99.90;;;;;;5080655;28;20303;-69
2023/04/14 01:41:34;;;;;;;2.47;2.28;;;6.30;99.90;;;;;;5077942;28;20259;-69
2023/04/14 01:44:03;;;;;;;2.45;2.35;;;6.30;99.90;;;;;;5079611;28;20923;-69
2023/04/14 01:46:32;;;;;;;2.45;2.35;;;6.30;99.90;;;;;;5081744;28;20242;-68
2023/04/14 01:48:59;;;;;;;1.95;1.95;;;6.40;99.90;;;;;;5078966;28;20657;-68
2023/04/14 01:51:29;;;;;;;1.92;1.92;;;6.30;99.90;;;;;;5082440;28;21081;-68
2023/04/14 01:53:58;;;;;;;2.13;2.05;;;6.30;99.90;;;;;;5078870;28;20987;-68
2023/04/14 01:56:26;;;;;;;2.03;1.98;;;6.30;99.90;;;;;;5077648;28;20267;-68
2023/04/14 01:58:57;;;;;;;2.10;2.00;;;6.30;99.90;;;;;;5078018;28;21280;-68
2023/04/14 02:01:27;;;;;;;2.25;2.15;;;6.30;99.90;;;;;;5076579;28;20287;-68
2023/04/14 02:03:57;;;;;;;2.10;2.00;;;6.30;99.90;;;;;;5074917;28;20667;-68
2023/04/14 02:06:26;;;;;;;2.20;2.10;;;6.40;99.90;;;;;;5077209;28;20275;-68
2023/04/14 02:08:53;;;;;;;2.40;2.30;;;6.30;99.90;;;;;;5079423;28;20222;-68
2023/04/14 02:11:22;;;;;;;1.70;1.70;;;6.40;99.90;;;;;;5078832;28;20290;-68
2023/04/14 02:13:49;;;;;;;2.20;2.10;;;6.40;99.90;;;;;;5077177;28;20236;-69
2023/04/14 02:16:18;;;;;;;2.30;2.20;;;6.40;99.90;;;;;;5077765;28;20297;-68
2023/04/14 02:18:46;;;;;;;2.10;2.00;;;6.40;99.90;;;;;;5076815;28;20225;-68
2023/04/14 02:21:17;;;;;;;1.90;1.90;;;6.40;99.90;;;;;;5080018;28;20228;-69
2023/04/14 02:23:44;;;;;;;1.92;1.92;;;6.40;99.90;;;;;;5078071;28;20241;-68
2023/04/14 02:26:13;;;;;;;1.70;1.70;;;6.40;99.90;;;;;;5079004;28;20193;-68
2023/04/14 02:28:48;;;;;;;2.40;2.30;;;6.40;99.90;;;;;;5076923;28;20325;-68
2023/04/14 02:31:22;;;;;;;2.10;2.00;;;6.40;99.90;;;;;;5076400;28;20760;-68
2023/04/14 02:33:53;;;;;;;1.90;1.85;;;6.40;99.90;;;;;;5076569;28;20281;-68
2023/04/14 02:36:31;;;;;;;2.28;2.17;;;6.30;99.90;;;;;;5074255;28;20280;-69
2023/04/14 02:39:01;;;;;;;1.83;1.83;;;6.30;99.90;;;;;;5076576;28;20308;-68
2023/04/14 02:41:30;;;;;;;1.80;1.80;;;6.30;99.90;;;;;;5081567;28;20235;-68
2023/04/14 02:44:04;;;;;;;2.10;2.05;;;6.30;99.90;;;;;;5081662;28;20240;-68
2023/04/14 02:46:35;;;;;;;2.10;2.00;;;6.30;99.90;;;;;;5078443;28;20695;-68
2023/04/14 02:49:06;;;;;;;1.63;1.63;;;6.30;99.90;;;;;;5081425;28;20279;-68
2023/04/14 02:51:36;;;;;;;1.85;1.85;;;6.30;99.90;;;;;;5081903;28;20284;-68
2023/04/14 02:54:04;;;;;;;2.03;1.92;;;6.30;99.90;;;;;;5079115;28;20191;-68
2023/04/14 02:56:31;;;;;;;2.20;2.10;;;6.30;99.90;;;;;;5079968;28;20217;-68
2023/04/14 02:58:59;;;;;;;1.80;1.80;;;6.30;99.90;;;;;;5079175;28;20775;-67
2023/04/14 03:01:27;;;;;;;1.95;1.92;;;6.30;99.90;;;;;;5078758;28;20284;-68
2023/04/14 03:03:57;;;;;;;2.00;2.00;;;6.40;99.90;;;;;;5080026;28;20221;-68
2023/04/14 03:06:26;;;;;;;2.30;2.20;;;6.30;99.90;;;;;;5079326;28;20297;-68
2023/04/14 03:08:55;;;;;;;1.98;1.88;;;6.40;99.90;;;;;;5074818;28;20222;-68
2023/04/14 03:11:22;;;;;;;1.83;1.80;;;6.40;99.90;;;;;;5079783;28;20442;-67
2023/04/14 03:13:54;;;;;;;2.30;2.20;;;6.30;99.90;;;;;;5081106;28;20285;-68
2023/04/14 03:16:22;;;;;;;1.98;1.98;;;6.30;99.90;;;;;;5079103;28;20340;-68
2023/04/14 03:18:50;;;;;;;2.20;2.10;;;6.20;99.90;;;;;;5077932;28;20245;-68
2023/04/14 03:21:19;;;;;;;1.95;1.95;;;6.20;99.90;;;;;;5076084;28;20316;-67
2023/04/14 03:23:47;;;;;;;2.17;2.08;;;6.20;99.90;;;;;;5079255;28;20216;-67
2023/04/14 03:26:18;;;;;;;2.08;1.98;;;6.20;99.90;;;;;;5076226;28;20266;-68
2023/04/14 03:28:47;;;;;;;1.90;1.90;;;6.20;99.90;;;;;;5078128;28;20268;-68
2023/04/14 03:31:17;;;;;;;2.65;2.55;;;6.20;99.90;;;;;;5079819;28;20209;-69
2023/04/14 03:33:46;;;;;;;1.95;1.85;;;6.10;99.90;;;;;;5075632;28;20780;-67
2023/04/14 03:36:15;;;;;;;2.00;2.00;;;6.20;99.90;;;;;;5079360;28;20575;-68
2023/04/14 03:38:44;;;;;;;1.60;1.60;;;6.20;99.90;;;;;;5081405;28;20905;-67
2023/04/14 03:41:13;;;;;;;2.15;2.05;;;6.20;99.90;;;;;;5078203;28;20230;-68
2023/04/14 03:43:43;;;;;;;2.28;2.17;;;6.20;99.90;;;;;;5075524;28;20744;-68
2023/04/14 03:46:10;;;;;;;2.17;2.08;;;6.20;99.90;;;;;;5074668;28;20730;-67
2023/04/14 03:48:41;;;;;;;2.05;1.98;;;6.20;99.90;;;;;;5081720;28;20577;-68
2023/04/14 03:51:12;;;;;;;1.95;1.85;;;6.20;99.90;;;;;;5079993;28;20740;-68
2023/04/14 03:53:42;;;;;;;2.38;2.28;;;6.20;99.90;;;;;;5079090;28;20267;-68
2023/04/14 03:56:12;;;;;;;1.77;1.73;;;6.20;99.90;;;;;;5077691;28;20681;-68
2023/04/14 03:58:41;;;;;;;2.13;2.03;;;6.20;99.90;;;;;;5078530;28;20312;-68
2023/04/14 04:01:09;;;;;;;1.40;1.40;;;6.30;99.90;;;;;;5076748;28;20286;-67
2023/04/14 04:03:37;;;;;;;1.55;1.55;;;6.30;99.90;;;;;;5080313;28;20251;-68
2023/04/14 04:06:05;;;;;;;1.90;1.90;;;6.30;99.90;;;;;;5076901;28;20549;-68
2023/04/14 04:08:34;;;;;;;1.83;1.73;;;6.20;99.90;;;;;;5076314;28;20274;-68
2023/04/14 04:11:05;;;;;;;1.85;1.85;;;6.20;99.90;;;;;;5075823;28;20307;-67
2023/04/14 04:13:33;;;;;;;1.70;1.70;;;6.20;99.90;;;;;;5075422;28;20728;-68
2023/04/14 04:16:02;;;;;;;1.80;1.70;;;6.30;99.90;;;;;;5072405;28;20241;-67
2023/04/14 04:18:31;;;;;;;2.00;1.90;;;6.30;99.90;;;;;;5071332;28;20799;-68
2023/04/14 04:21:00;;;;;;;2.20;2.10;;;6.30;99.90;;;;;;5070229;28;20214;-68
2023/04/14 04:23:30;;;;;;;1.70;1.70;;;6.20;99.90;;;;;;5073545;28;20222;-68
2023/04/14 04:25:57;;;;;;;2.20;2.10;;;6.20;99.90;;;;;;5073022;28;20251;-68
2023/04/14 04:28:24;;;;;;;1.92;1.90;;;6.20;99.90;;;;;;5075438;28;20221;-68
2023/04/14 04:30:54;;;;;;;2.05;1.95;;;6.20;99.90;;;;;;5078367;28;20197;-68
2023/04/14 04:33:23;;;;;;;1.83;1.83;;;6.20;99.90;;;;;;5074138;28;20317;-68
2023/04/14 04:35:51;;;;;;;1.90;1.90;;;6.20;99.90;;;;;;5073193;28;20919;-67
2023/04/14 04:38:18;;;;;;;2.00;1.90;;;6.20;99.90;;;;;;5073211;28;20300;-68
2023/04/14 04:40:45;;;;;;;1.95;1.85;;;6.20;99.90;;;;;;5074071;28;20301;-68
2023/04/14 04:43:12;;;;;;;2.35;2.25;;;6.30;99.90;;;;;;5076465;28;20221;-69
2023/04/14 04:45:53;;;;;;;1.98;1.90;;;6.20;99.90;;;;;;5073247;28;20293;-68
2023/04/14 04:48:20;;;;;;;1.83;1.80;;;6.20;99.90;;;;;;5075891;28;20788;-68
2023/04/14 04:50:48;;;;;;;1.52;1.52;;;6.20;99.90;;;;;;5069727;28;20281;-67
2023/04/14 04:53:15;;;;;;;2.28;2.17;;;6.20;99.90;;;;;;5076763;28;20194;-67
2023/04/14 04:55:42;;;;;;;2.20;2.10;;;6.10;99.90;;;;;;5074939;28;20193;-68
2023/04/14 04:58:09;;;;;;;2.25;2.15;;;6.10;99.90;;;;;;5075858;28;20229;-68
2023/04/14 05:00:36;;;;;;;2.30;2.20;;;6.10;99.90;;;;;;5077660;28;20201;-67
2023/04/14 05:03:03;;;;;;;2.25;2.15;;;6.10;99.90;;;;;;5078563;28;20274;-69
2023/04/14 05:05:34;;;;;;;2.13;2.03;;;6.00;99.90;;;;;;5079457;28;20688;-68
2023/04/14 05:08:02;;;;;;;2.47;2.38;;;6.00;99.90;;;;;;5080281;28;20225;-67
2023/04/14 05:10:29;;;;;;;2.25;2.15;;;6.10;99.90;;;;;;5077732;28;20273;-68
2023/04/14 05:12:56;;;;;;;2.10;2.00;;;6.00;99.90;;;;;;5085346;28;20202;-68
2023/04/14 05:15:23;;;;;;;2.50;2.40;;;6.00;99.90;;;;;;5084757;28;20236;-67
2023/04/14 05:17:50;;;;;;;1.83;1.83;;;6.10;99.90;;;;;;5084500;28;20218;-68
2023/04/14 05:20:17;;;;;;;1.92;1.92;;;6.10;99.90;;;;;;5082702;28;20212;-68
2023/04/14 05:22:44;;;;;;;2.03;1.92;;;6.10;99.90;;;;;;5077206;28;20684;-69
2023/04/14 05:25:13;;;;;;;2.47;2.38;;;6.10;99.90;;;;;;5081526;28;20225;-68
2023/04/14 05:27:40;;;;;;;2.50;2.40;;;6.10;99.90;;;;;;5078333;28;20288;-67
2023/04/14 05:30:08;;;;;;;3.55;3.25;;;6.10;99.90;;;;;;5080682;28;20690;-68
2023/04/14 05:32:35;;;;;;;2.88;2.78;;;6.10;99.90;;;;;;5078421;28;20197;-67
2023/04/14 05:35:02;;;;;;;3.05;2.85;;;6.10;99.90;;;;;;5075134;28;20282;-68
2023/04/14 05:37:29;;;;;;;2.03;1.92;;;6.20;99.90;;;;;;5079027;28;20212;-68
2023/04/14 05:39:56;;;;;;;2.40;2.30;;;6.30;99.90;;;;;;5077122;28;20556;-68
2023/04/14 05:42:24;;;;;;;2.42;2.33;;;6.30;99.90;;;;;;5080068;28;20313;-68
2023/04/14 05:44:51;;;;;;;2.38;2.28;;;6.40;99.90;;;;;;5079620;28;20233;-68
2023/04/14 05:47:18;;;;;;;2.17;2.08;;;6.40;99.90;;;;;;5077968;28;20230;-68
2023/04/14 05:49:45;;;;;;;2.25;2.15;;;6.40;99.90;;;;;;5082654;28;20221;-68
2023/04/14 05:52:12;;;;;;;2.20;2.10;;;6.40;99.90;;;;;;5083465;28;20281;-68
2023/04/14 05:54:39;;;;;;;2.20;2.10;;;6.40;99.90;;;;;;5080826;28;20319;-68
2023/04/14 05:57:06;;;;;;;2.40;2.30;;;6.40;99.90;;;;;;5076019;28;20209;-68
2023/04/14 05:59:34;;;;;;;2.38;2.28;;;6.40;99.90;;;;;;5078122;28;20225;-68
2023/04/14 06:02:05;;;;;;;2.60;2.50;;;6.50;99.90;;;;;;5078279;28;20288;-67
2023/04/14 06:04:32;;;;;;;2.45;2.35;;;6.60;99.90;;;;;;5080721;28;20251;-67
2023/04/14 06:07:00;;;;;;;2.30;2.20;;;6.60;99.90;;;;;;5076910;28;20259;-67
2023/04/14 06:09:27;;;;;;;2.60;2.50;;;6.70;99.90;;;;;;5074826;28;20727;-66
2023/04/14 06:11:54;;;;;;;2.28;2.17;;;6.70;99.90;;;;;;5079702;28;20229;-68
2023/04/14 06:14:21;;;;;;;2.50;2.40;;;6.80;99.90;;;;;;5079238;28;20217;-67
2023/04/14 06:16:50;;;;;;;2.35;2.20;;;6.80;99.90;;;;;;5076442;28;20209;-66
2023/04/14 06:19:18;;;;;;;2.30;2.20;;;6.80;99.90;;;;;;5076772;28;20937;-68
2023/04/14 06:21:45;;;;;;;2.28;2.17;;;6.80;99.90;;;;;;5079924;28;20205;-68
2023/04/14 06:24:12;;;;;;;2.08;1.98;;;6.80;99.90;;;;;;5077878;28;20771;-68
2023/04/14 06:26:39;;;;;;;2.13;2.03;;;6.90;99.90;;;;;;5074379;28;20252;-68
2023/04/14 06:29:07;;;;;;;2.60;2.47;;;6.90;99.90;;;;;;5078880;28;20217;-67
2023/04/14 06:31:34;;;;;;;2.60;2.50;;;7.00;99.90;;;;;;5078829;28;20642;-68
2023/04/14 06:34:02;;;;;;;2.63;2.53;;;7.00;99.90;;;;;;5071434;28;20282;-68
2023/04/14 06:36:30;;;;;;;2.65;2.53;;;7.10;99.90;;;;;;5072778;28;20234;-68
2023/04/14 06:38:57;;;;;;;2.50;2.40;;;7.10;99.90;;;;;;5072362;28;20232;-69
2023/04/14 06:41:24;;;;;;;2.15;2.05;;;7.20;99.90;;;;;;5071742;28;20655;-69
2023/04/14 06:43:51;;;;;;;2.85;2.65;;;7.20;99.90;;;;;;5071117;28;20215;-68
2023/04/14 06:46:18;;;;;;;2.35;2.25;;;7.30;99.90;;;;;;5076444;28;20206;-69
2023/04/14 06:48:45;;;;;;;2.55;2.45;;;7.30;99.90;;;;;;5077185;28;20268;-68
2023/04/14 06:51:14;;;;;;;2.45;2.28;;;7.40;99.90;;;;;;5074679;28;20293;-68
2023/04/14 06:53:41;;;;;;;3.22;3.03;;;7.40;99.90;;;;;;5073250;28;20205;-68
2023/04/14 06:56:08;;;;;;;2.55;2.40;;;7.50;99.90;;;;;;5078421;28;20288;-67
2023/04/14 06:58:35;;;;;;;2.75;2.58;;;7.60;99.90;;;;;;5078403;28;20257;-68
2023/04/14 07:01:03;;;;;;;2.88;2.67;;;7.70;99.90;;;;;;5076776;28;20296;-68
2023/04/14 07:03:31;;;;;;;2.80;2.60;;;7.70;99.90;;;;;;5079005;28;20299;-68
2023/04/14 07:06:03;;;;;;;2.78;2.58;;;7.80;99.90;;;;;;5074175;28;20795;-69
2023/04/14 07:08:33;;;;;;;2.50;2.40;;;7.80;99.90;;;;;;5074783;28;20966;-69
2023/04/14 07:11:01;;;;;;;3.10;2.90;;;7.90;99.90;;;;;;5074283;28;20197;-70
2023/04/14 07:13:28;;;;;;;3.08;2.88;;;8.00;99.90;;;;;;5078066;28;20293;-69
2023/04/14 07:15:55;;;;;;;3.95;2.60;;;8.10;99.90;;;;;;5074890;28;20290;-72
2023/04/14 07:18:22;;;;;;;3.45;2.70;;;8.10;99.90;;;;;;5076118;28;20871;-69
2023/04/14 07:20:51;;;;;;;3.28;2.38;;;8.10;99.90;;;;;;5073751;28;20201;-72
2023/04/14 07:23:18;;;;;;;2.08;1.98;;;8.20;99.90;;;;;;5074850;28;20198;-70
2023/04/14 07:25:50;;;;;;;2.92;2.22;;;8.30;99.90;;;;;;5078705;28;20840;-69
2023/04/14 07:28:17;;;;;;;2.42;2.28;;;8.50;99.90;;;;;;5076489;28;20225;-68
2023/04/14 07:30:44;;;;;;;3.22;2.28;;;8.80;99.90;;;;;;5074692;28;20280;-68
2023/04/14 07:33:12;;;;;;;2.70;2.20;;;9.10;99.90;;;;;;5074842;28;20198;-70
2023/04/14 07:35:39;;;;;;;5.43;2.53;;;9.50;99.90;;;;;;5077802;28;20201;-68
2023/04/14 07:38:06;;;;;;;2.63;1.85;;;9.70;99.90;;;;;;5075859;28;20267;-70
2023/04/14 07:40:33;;;;;;;2.25;1.70;;;9.90;99.90;;;;;;5078975;28;20220;-68
2023/04/14 07:43:01;;;;;;;1.90;1.80;;;10.20;99.90;;;;;;5078446;28;20650;-66
2023/04/14 07:45:29;;;;;;;2.03;1.90;;;10.50;99.90;;;;;;5078653;28;20310;-70
2023/04/14 07:47:56;;;;;;;1.92;1.80;;;10.80;99.90;;;;;;5075180;28;20243;-69
2023/04/14 07:50:24;;;;;;;1.90;1.80;;;11.10;99.90;;;;;;5075697;28;20256;-70
2023/04/14 07:52:51;;;;;;;1.92;1.83;;;11.20;99.90;;;;;;5078093;28;20228;-71
2023/04/14 07:55:18;;;;;;;1.90;1.65;;;11.30;99.90;;;;;;5077633;28;20243;-71
2023/04/14 07:57:45;;;;;;;1.88;1.77;;;11.40;99.90;;;;;;5076569;28;20201;-73
2023/04/14 08:00:15;;;;;;;2.38;2.15;;;11.50;99.90;;;;;;5075378;28;20294;-70
2023/04/14 08:02:42;;;;;;;2.53;1.98;;;11.50;99.90;;;;;;5076826;28;20240;-70
2023/04/14 08:05:08;;;;;;;2.35;2.20;;;11.60;99.90;;;;;;5079360;28;20305;-70
2023/04/14 08:07:36;;;;;;;3.03;1.90;;;11.50;99.90;;;;;;5078830;28;20288;-72
2023/04/14 08:10:03;;;;;;;2.60;2.33;;;11.50;99.90;;;;;;5074415;28;20190;-70
2023/04/14 08:12:30;;;;;;;2.53;2.33;;;11.40;99.90;;;;;;5076989;28;20201;-70
2023/04/14 08:14:57;;;;;;;3.65;3.35;;;11.40;99.90;;;;;;5078269;28;20197;-71
2023/04/14 08:17:26;;;;;;;3.33;3.05;;;11.40;99.90;;;;;;5076601;28;20276;-72
2023/04/14 08:19:53;;;;;;;2.95;2.75;;;11.40;99.90;;;;;;5077222;28;20758;-70
2023/04/14 08:22:20;;;;;;;2.40;2.25;;;11.30;99.90;;;;;;5078803;28;20206;-71
2023/04/14 08:24:47;;;;;;;2.47;2.33;;;11.30;99.90;;;;;;5077659;28;22608;-71
2023/04/14 08:27:14;;;;;;;1.88;1.77;;;11.30;99.90;;;;;;5075766;28;20201;-71
2023/04/14 08:29:41;;;;;;;2.78;2.58;;;11.30;99.90;;;;;;5074471;28;20221;-71
2023/04/14 08:32:08;;;;;;;2.30;2.15;;;11.20;99.90;;;;;;5079266;28;20278;-70
2023/04/14 08:34:36;;;;;;;2.40;2.25;;;11.10;99.90;;;;;;5076775;28;20284;-71
2023/04/14 08:37:03;;;;;;;2.70;2.17;;;11.30;99.90;;;;;;5074086;28;20259;-70
2023/04/14 08:39:30;;;;;;;1.90;1.80;;;11.70;99.90;;;;;;5074621;28;20276;-70
2023/04/14 08:41:58;;;;;;;2.30;2.10;;;11.90;99.90;;;;;;5075646;28;20244;-71
2023/04/14 08:44:25;;;;;;;1.88;1.77;;;11.90;99.90;;;;;;5078242;28;20244;-70
2023/04/14 08:46:54;;;;;;;2.05;1.88;;;11.90;99.90;;;;;;5076713;28;20198;-71
2023/04/14 08:49:28;;;;;;;1.40;1.40;;;12.10;99.90;;;;;;5074146;28;20309;-70
2023/04/14 08:52:02;;;;;;;1.67;1.58;;;12.20;99.90;;;;;;5076514;28;20201;-69
2023/04/14 08:54:29;;;;;;;1.80;1.70;;;12.30;99.90;;;;;;5075905;28;20229;-70
2023/04/14 08:56:57;;;;;;;1.58;1.42;;;12.40;99.90;;;;;;5078071;28;20241;-72
2023/04/14 08:59:25;;;;;;;1.60;1.58;;;12.50;99.90;;;;;;5070555;28;20324;-74
2023/04/14 09:01:53;;;;;;;2.05;1.70;;;12.50;99.90;;;;;;5073638;28;20212;-72
2023/04/14 09:04:21;;;;;;;3.80;3.30;;;12.70;99.90;;;;;;5070942;28;20332;-70
2023/04/14 09:06:48;;;;;;;3.15;2.95;;;13.00;99.90;;;;;;5071586;28;20198;-70
2023/04/14 09:09:16;;;;;;;1.90;1.80;;;13.20;99.90;;;;;;5074617;28;21387;-70
2023/04/14 09:11:44;;;;;;;1.83;1.73;;;13.30;99.90;;;;;;5074934;28;20302;-69
2023/04/14 09:14:14;;;;;;;1.80;1.70;;;13.30;99.90;;;;;;5074873;28;20229;-74
2023/04/14 09:16:41;;;;;;;1.63;1.52;;;13.50;99.90;;;;;;5071079;28;20237;-71
2023/04/14 09:19:09;;;;;;;1.30;1.30;;;13.70;99.90;;;;;;5072400;28;20716;-72
2023/04/14 09:21:36;;;;;;;1.50;1.42;;;13.80;99.90;;;;;;5074813;28;20204;-71
2023/04/14 09:24:04;;;;;;;1.25;1.25;;;14.10;99.90;;;;;;5071219;28;20199;-73
2023/04/14 09:26:32;;;;;;;1.30;1.30;;;14.20;99.90;;;;;;5074204;28;20210;-73
2023/04/14 09:28:59;;;;;;;1.10;1.10;;;14.60;99.90;;;;;;5072119;28;20250;-73
2023/04/14 09:31:27;;;;;;;1.25;1.17;;;14.90;99.90;;;;;;5074008;28;20610;-72
2023/04/14 09:33:54;;;;;;;1.20;1.10;;;15.20;99.90;;;;;;5071047;28;20298;-72
2023/04/14 09:36:22;;;;;;;1.00;1.00;;;15.60;99.90;;;;;;5073721;28;20238;-71
2023/04/14 09:38:50;;;;;;;1.27;1.27;;;15.80;99.90;;;;;;5075427;28;20261;-73
2023/04/14 09:41:18;;;;;;;1.00;1.00;;;16.10;99.90;;;;;;5071499;28;20627;-73
2023/04/14 09:43:46;;;;;;;1.48;1.30;;;16.30;99.90;;;;;;5074779;28;20225;-73
2023/04/14 09:46:14;;;;;;;0.95;0.95;;;16.40;99.90;;;;;;5075689;28;20242;-72
2023/04/14 09:48:51;;;;;;;1.00;1.00;;;16.00;99.90;;;;;;5077148;28;20225;-72
2023/04/14 09:51:22;;;;;;;1.60;0.90;;;15.60;99.90;;;;;;5076982;28;20193;-72
2023/04/14 09:53:49;;;;;;;1.00;1.00;;;15.50;99.90;;;;;;5078396;28;20233;-74
2023/04/14 09:56:16;;;;;;;1.00;1.00;;;15.20;99.90;;;;;;5074547;28;20239;-71
2023/04/14 09:58:44;;;;;;;1.67;1.00;;;15.20;99.90;;;;;;5076828;28;20253;-70
2023/04/14 10:01:15;;;;;;;1.10;1.10;;;14.90;99.90;;;;;;5077284;28;20740;-70
2023/04/14 10:03:43;;;;;;;0.95;0.95;;;14.70;99.90;;;;;;5075963;28;20201;-71
2023/04/14 10:06:15;;;;;;;1.67;1.00;;;14.80;99.90;;;;;;5074132;28;20780;-69
2023/04/14 10:08:45;;;;;;;1.15;1.15;;;15.00;99.90;;;;;;5077970;28;20218;-69
2023/04/14 10:11:16;;;;;;;1.00;1.00;;;15.00;99.90;;;;;;5074686;28;20200;-70
2023/04/14 10:13:44;;;;;;;3.30;1.20;;;15.00;99.90;;;;;;5074629;28;20198;-69
2023/04/14 10:16:11;;;;;;;1.50;1.40;;;15.10;99.90;;;;;;5074709;28;20225;-67
2023/04/14 10:18:39;;;;;;;1.40;1.02;;;15.10;99.90;;;;;;5074368;28;20345;-68
2023/04/14 10:21:07;;;;;;;1.20;1.20;;;15.10;99.90;;;;;;5072100;28;20262;-68
2023/04/14 10:23:37;;;;;;;1.33;1.33;;;14.90;99.90;;;;;;5078867;28;20202;-67
2023/04/14 10:26:05;;;;;;;1.50;1.40;;;14.80;99.90;;;;;;5076420;28;20226;-69
2023/04/14 10:28:33;;;;;;;1.40;1.30;;;14.80;99.90;;;;;;5075784;28;20322;-69
2023/04/14 10:31:02;;;;;;;1.35;1.30;;;14.70;99.90;;;;;;5071692;28;20201;-69
2023/04/14 10:33:29;;;;;;;1.77;1.48;;;14.60;99.90;;;;;;5075570;28;20315;-68
2023/04/14 10:36:00;;;;;;;4.88;2.10;;;14.50;99.90;;;;;;5069482;28;20621;-70
2023/04/14 10:38:41;;;;;;;1.95;1.48;;;14.50;99.90;;;;;;5071016;28;20219;-70
2023/04/14 10:41:08;;;;;;;1.63;1.52;;;14.40;99.90;;;;;;5068174;28;20193;-68
2023/04/14 10:43:36;;;;;;;1.33;1.33;;;14.60;99.90;;;;;;5076195;28;20725;-69
2023/04/14 10:46:05;;;;;;;1.15;1.05;;;14.80;99.90;;;;;;5074666;28;22233;-71
2023/04/14 10:48:36;;;;;;;1.27;1.27;;;15.00;99.90;;;;;;5077645;28;20222;-70
2023/04/14 10:51:07;;;;;;;1.20;1.20;;;15.10;99.90;;;;;;5074419;28;20267;-67
2023/04/14 10:53:43;;;;;;;1.02;1.02;;;15.20;99.90;;;;;;5076135;28;20205;-68
2023/04/14 10:56:10;;;;;;;1.13;1.13;;;15.20;99.90;;;;;;5071791;28;20313;-68
2023/04/14 10:58:37;;;;;;;1.20;1.20;;;15.30;99.90;;;;;;5071436;28;20221;-69
2023/04/14 11:01:24;;;;;;;1.00;1.00;;;15.40;99.90;;;;;;5075345;28;20714;-68
2023/04/14 11:03:52;;;;;;;1.13;1.05;;;15.70;99.90;;;;;;5073687;28;20262;-68
2023/04/14 11:06:54;;;;;;;1.05;1.05;;;15.80;99.90;;;;;;5072266;28;20221;-68
2023/04/14 11:09:26;;;;;;;2.15;0.70;;;15.70;99.90;;;;;;5068417;28;20248;-68
2023/04/14 11:11:55;;;;;;;0.95;0.95;;;15.60;99.90;;;;;;5068099;28;20252;-68
2023/04/14 11:14:27;;;;;;;0.80;0.80;;;15.70;99.90;;;;;;5074707;28;20274;-69
2023/04/14 11:16:59;;;;;;;1.23;1.13;;;15.50;99.90;;;;;;5071950;28;20201;-68
2023/04/14 11:19:26;;;;;;;1.00;1.00;;;15.40;99.90;;;;;;5071563;28;20228;-68
2023/04/14 11:21:56;;;;;;;1.50;0.80;;;15.20;99.90;;;;;;5074167;28;20288;-69
2023/04/14 11:24:23;;;;;;;0.73;0.73;;;15.10;99.90;;;;;;5070152;28;20502;-70
2023/04/14 11:26:53;;;;;;;0.82;0.82;;;15.00;99.90;;;;;;5071498;28;20316;-68
2023/04/14 11:29:20;;;;;;;1.00;1.00;;;15.20;99.90;;;;;;5070883;28;20222;-68
2023/04/14 11:31:47;;;;;;;1.20;1.20;;;15.40;99.90;;;;;;5071878;28;20229;-67
2023/04/14 11:34:14;;;;;;;1.35;1.25;;;15.60;99.90;;;;;;5071721;28;20209;-69
2023/04/14 11:36:41;;;;;;;0.82;0.82;;;15.80;99.90;;;;;;5072572;28;20197;-67
2023/04/14 11:39:10;;;;;;;0.85;0.85;;;15.90;99.90;;;;;;5071159;28;20245;-68
2023/04/14 11:41:37;;;;;;;0.80;0.80;;;16.00;99.90;;;;;;5071581;28;20685;-69
2023/04/14 11:44:04;;;;;;;0.90;0.90;;;16.00;99.90;;;;;;5073600;28;20727;-67
2023/04/14 11:46:32;;;;;;;1.00;1.00;;;16.10;99.90;;;;;;5070940;28;20304;-68
2023/04/14 11:48:59;;;;;;;1.17;1.10;;;16.10;99.90;;;;;;5072612;28;20248;-68
2023/04/14 11:51:32;;;;;;;0.90;0.90;;;16.00;99.90;;;;;;5070475;28;20233;-71
2023/04/14 11:53:59;;;;;;;1.10;1.10;;;16.20;99.90;;;;;;5072570;28;20284;-69
2023/04/14 11:56:30;;;;;;;1.10;1.10;;;16.10;99.90;;;;;;5068045;28;20289;-68
2023/04/14 11:59:01;;;;;;;0.95;0.95;;;16.10;99.90;;;;;;5067823;28;20318;-68
2023/04/14 12:01:29;;;;;;;1.00;1.00;;;16.20;99.90;;;;;;5069481;28;20457;-69
2023/04/14 12:03:56;;;;;;;0.98;0.98;;;16.50;99.90;;;;;;5070128;28;20247;-71
2023/04/14 12:06:26;;;;;;;0.90;0.90;;;16.80;99.90;;;;;;5069260;28;20679;-68
2023/04/14 12:08:54;;;;;;;0.93;0.93;;;17.20;99.90;;;;;;5072259;28;20222;-69
2023/04/14 12:11:21;;;;;;;1.05;0.85;;;17.50;99.90;;;;;;5070323;28;20281;-70
2023/04/14 12:13:51;;;;;;;0.90;0.90;;;17.50;99.90;;;;;;5073554;28;20201;-69
2023/04/14 12:16:18;;;;;;;0.90;0.90;;;17.70;99.90;;;;;;5070166;28;20197;-67
2023/04/14 12:18:46;;;;;;;0.80;0.80;;;17.70;99.90;;;;;;5074296;28;20256;-70
2023/04/14 12:21:18;;;;;;;0.70;0.70;;;17.20;99.90;;;;;;5070727;28;20233;-72
2023/04/14 12:23:48;;;;;;;0.90;0.90;;;17.00;99.90;;;;;;5074798;28;20562;-71
2023/04/14 12:26:15;;;;;;;0.80;0.80;;;17.30;99.90;;;;;;5069757;28;20398;-69
2023/04/14 12:28:43;;;;;;;0.90;0.90;;;17.90;99.90;;;;;;5075436;28;20290;-70
2023/04/14 12:31:12;;;;;;;0.85;0.70;;;18.50;99.90;;;;;;5073461;28;20208;-71
2023/04/14 12:33:38;;;;;;;0.68;0.68;;;19.00;99.90;;;;;;5074551;28;20284;-70
2023/04/14 12:36:08;;;;;;;0.75;0.75;;;19.20;99.90;;;;;;5067231;28;20190;-70
2023/04/14 12:38:35;;;;;;;0.80;0.80;;;18.90;99.90;;;;;;5070469;28;20400;-70
2023/04/14 12:41:02;;;;;;;0.82;0.82;;;18.80;99.90;;;;;;5069189;28;20233;-72
2023/04/14 12:43:30;;;;;;;0.80;0.80;;;18.80;99.90;;;;;;5072871;28;20449;-71
2023/04/14 12:45:58;;;;;;;0.90;0.90;;;18.60;99.90;;;;;;5072585;28;20304;-70
2023/04/14 12:48:42;;;;;;;0.82;0.82;;;18.60;97.50;;;;;;5072445;28;20233;-70
2023/04/14 12:51:10;;;;;;;0.77;0.77;;;17.90;95.40;;;;;;5074387;28;20201;-71
2023/04/14 12:53:37;;;;;;;0.80;0.80;;;17.80;97.50;;;;;;5073333;28;20290;-72
2023/04/14 12:56:09;;;;;;;0.85;0.85;;;18.00;98.40;;;;;;5074308;28;20305;-71
2023/04/14 12:58:36;;;;;;;0.77;0.77;;;17.80;96.30;;;;;;5073215;28;20226;-70
2023/04/14 13:01:05;;;;;;;0.80;0.80;;;17.40;95.80;;;;;;5073246;28;20201;-69